createdAt,value
2022-10-21T00:00:30.131Z,102046.55
2022-10-21T00:04:46.144Z,102047.15
2022-10-21T00:08:45.358Z,102041.88
2022-10-21T00:12:49.451Z,102036.40
2022-10-21T00:16:24.280Z,102026.77
2022-10-21T00:20:28.597Z,102018.21
2022-10-21T00:24:03.730Z,102005.03
2022-10-21T00:28:10.934Z,102006.54
2022-10-21T00:31:48.628Z,101996.61
2022-10-21T00:35:23.280Z,101986.40
2022-10-21T00:39:29.685Z,101979.70
2022-10-21T00:43:04.759Z,101980.12
2022-10-21T00:47:12.283Z,101983.86
2022-10-21T00:50:49.566Z,101978.60
2022-10-21T00:54:19.221Z,101974.23
2022-10-21T00:58:26.804Z,101965.40
2022-10-21T01:02:00.616Z,101954.38
2022-10-21T01:05:53.637Z,101947.23
2022-10-21T01:09:15.158Z,101934.00
2022-10-21T01:12:57.663Z,101929.49
2022-10-21T01:16:49.130Z,101922.62
2022-10-21T01:20:22.636Z,101915.16
2022-10-21T01:24:40.715Z,101909.30
2022-10-21T01:28:10.199Z,101912.67
2022-10-21T01:31:40.182Z,101898.06
2022-10-21T01:35:45.757Z,101897.67
2022-10-21T01:39:58.683Z,101894.47
2022-10-21T01:44:05.309Z,101889.30
2022-10-21T01:47:44.817Z,101883.45
2022-10-21T01:51:13.422Z,101880.67
2022-10-21T01:55:18.313Z,101876.76
2022-10-21T01:59:21.531Z,101878.71
2022-10-21T02:03:24.930Z,101884.71
2022-10-21T02:07:02.256Z,101879.00
2022-10-21T02:10:54.392Z,101875.84
2022-10-21T02:14:19.718Z,101870.45
2022-10-21T02:18:25.175Z,101861.91
2022-10-21T02:22:02.845Z,101860.66
2022-10-21T02:25:40.159Z,101857.45
2022-10-21T02:29:21.944Z,101852.27
2022-10-21T02:33:12.068Z,101857.83
2022-10-21T02:36:44.471Z,101845.69
2022-10-21T02:40:20.177Z,101839.44
2022-10-21T02:44:05.335Z,101839.41
2022-10-21T02:47:24.171Z,101823.89
2022-10-21T02:51:07.363Z,101818.16
2022-10-21T02:54:38.001Z,101816.79
2022-10-21T02:58:37.966Z,101806.88
2022-10-21T03:02:20.475Z,101817.73
2022-10-21T03:05:54.117Z,101812.21
2022-10-21T03:09:58.174Z,101810.91
2022-10-21T03:13:51.974Z,101809.47
2022-10-21T03:17:13.466Z,101805.58
2022-10-21T03:20:50.262Z,101797.75
2022-10-21T03:24:29.242Z,101784.98
2022-10-21T03:28:07.009Z,101781.43
2022-10-21T03:31:44.993Z,101780.67
2022-10-21T03:35:20.124Z,101774.09
2022-10-21T03:39:22.682Z,101772.36
2022-10-21T03:43:26.925Z,101761.16
2022-10-21T03:47:01.867Z,101753.66
2022-10-21T03:51:02.509Z,101760.27
2022-10-21T03:54:40.114Z,101763.74
2022-10-21T03:58:41.181Z,101765.95
2022-10-21T04:02:19.507Z,101762.98
2022-10-21T04:05:58.578Z,101760.80
2022-10-21T04:09:36.352Z,101753.69
2022-10-21T04:13:11.814Z,101748.92
2022-10-21T04:16:53.589Z,101750.45
2022-10-21T04:20:29.242Z,101747.94
2022-10-21T04:24:07.061Z,101754.73
2022-10-21T04:27:42.235Z,101748.98
2022-10-21T04:31:46.164Z,101738.95
2022-10-21T04:35:21.257Z,101723.56
2022-10-21T04:39:26.595Z,101714.80
2022-10-21T04:42:58.034Z,101704.95
2022-10-21T04:47:05.416Z,101698.55
2022-10-21T04:50:45.295Z,101699.63
2022-10-21T04:54:21.573Z,101686.60
2022-10-21T04:58:00.489Z,101680.52
2022-10-21T05:01:35.887Z,101674.63
2022-10-21T05:05:38.112Z,101666.06
2022-10-21T05:09:35.202Z,101660.20
2022-10-21T05:12:55.532Z,101655.42
2022-10-21T05:16:29.991Z,101648.60
2022-10-21T05:20:33.723Z,101649.61
2022-10-21T05:24:09.588Z,101643.59
2022-10-21T05:27:45.219Z,101636.49
2022-10-21T05:31:44.403Z,101624.18
2022-10-21T05:35:43.272Z,101621.46
2022-10-21T05:39:42.569Z,101620.11
2022-10-21T05:43:45.203Z,101610.00
2022-10-21T05:47:45.225Z,101607.59
2022-10-21T05:51:45.091Z,101600.06
2022-10-21T05:55:43.497Z,101600.30
2022-10-21T05:59:42.069Z,101611.15
2022-10-21T06:03:40.601Z,101603.84
2022-10-21T06:07:39.172Z,101597.83
2022-10-21T06:11:41.587Z,101604.74
2022-10-21T06:15:16.885Z,101597.84
2022-10-21T06:19:15.319Z,101595.07
2022-10-21T06:23:16.702Z,101585.56
2022-10-21T06:27:21.190Z,101577.80
2022-10-21T06:30:55.616Z,101574.45
2022-10-21T06:34:37.192Z,101566.70
2022-10-21T06:38:12.950Z,101572.88
2022-10-21T06:41:46.232Z,101562.35
2022-10-21T06:45:52.412Z,101562.66
2022-10-21T06:49:45.329Z,101561.72
2022-10-21T06:53:04.306Z,101551.64
2022-10-21T06:57:04.128Z,101555.14
2022-10-21T07:01:16.623Z,101549.83
2022-10-21T07:04:40.349Z,101540.73
2022-10-21T07:08:47.178Z,101525.77
2022-10-21T07:12:16.982Z,101512.94
2022-10-21T07:16:24.812Z,101512.37
2022-10-21T07:20:23.308Z,101512.19
2022-10-21T07:24:27.358Z,101504.21
2022-10-21T07:28:06.201Z,101504.51
2022-10-21T07:31:42.407Z,101505.24
2022-10-21T07:35:19.827Z,101498.61
2022-10-21T07:38:58.029Z,101496.33
2022-10-21T07:42:32.611Z,101506.23
2022-10-21T07:46:32.707Z,101500.05
2022-10-21T07:50:34.180Z,101501.75
2022-10-21T07:54:35.279Z,101502.06
2022-10-21T07:58:36.485Z,101501.18
2022-10-21T08:02:36.956Z,101505.63
2022-10-21T08:06:39.262Z,101513.48
2022-10-21T08:10:14.523Z,101511.42
2022-10-21T08:14:16.139Z,101504.23
2022-10-21T08:17:55.941Z,101501.08
2022-10-21T08:21:28.977Z,101488.61
2022-10-21T08:25:30.397Z,101492.30
2022-10-21T08:29:52.410Z,101480.58
2022-10-21T08:33:10.405Z,101480.42
2022-10-21T08:37:15.670Z,101480.42
2022-10-21T08:40:51.054Z,101477.31
2022-10-21T08:44:59.229Z,101467.94
2022-10-21T08:49:07.797Z,101464.81
2022-10-21T08:53:18.845Z,101458.05
2022-10-21T08:56:49.626Z,101461.63
2022-10-21T09:00:28.630Z,101453.02
2022-10-21T09:04:40.875Z,101441.06
2022-10-21T09:09:01.656Z,101440.58
2022-10-21T09:12:30.502Z,101428.45
2022-10-21T09:16:47.894Z,101420.80
2022-10-21T09:21:06.530Z,101423.30
2022-10-21T09:25:32.955Z,101425.78
2022-10-21T09:28:47.090Z,101420.86
2022-10-21T09:32:51.509Z,101416.05
2022-10-21T09:36:54.189Z,101410.91
2022-10-21T09:41:05.648Z,101409.75
2022-10-21T09:44:34.405Z,101409.24
2022-10-21T09:48:18.259Z,101422.12
2022-10-21T09:51:51.146Z,101417.70
2022-10-21T09:55:24.639Z,101425.85
2022-10-21T09:59:30.336Z,101415.47
2022-10-21T10:03:38.601Z,101414.98
2022-10-21T10:07:30.021Z,101403.88
2022-10-21T10:10:51.654Z,101408.23
2022-10-21T10:14:56.708Z,101396.86
2022-10-21T10:18:32.793Z,101394.71
2022-10-21T10:22:15.536Z,101393.86
2022-10-21T10:25:49.122Z,101379.20
2022-10-21T10:29:54.220Z,101363.20
2022-10-21T10:33:59.239Z,101355.25
2022-10-21T10:37:36.612Z,101340.99
2022-10-21T10:41:16.785Z,101337.23
2022-10-21T10:45:22.903Z,101328.96
2022-10-21T10:49:04.136Z,101322.41
2022-10-21T10:53:09.094Z,101321.46
2022-10-21T10:56:30.754Z,101311.38
2022-10-21T11:00:11.410Z,101316.06
2022-10-21T11:03:35.916Z,101318.17
2022-10-21T11:07:10.645Z,101316.51
2022-10-21T11:11:05.284Z,101312.20
2022-10-21T11:14:21.871Z,101315.92
2022-10-21T11:18:48.734Z,101309.60
2022-10-21T11:22:06.047Z,101312.14
2022-10-21T11:25:44.822Z,101315.12
2022-10-21T11:29:53.176Z,101302.34
2022-10-21T11:34:04.785Z,101309.27
2022-10-21T11:38:14.331Z,101318.14
2022-10-21T11:42:17.301Z,101318.40
2022-10-21T11:46:33.357Z,101316.64
2022-10-21T11:50:02.015Z,101312.27
2022-10-21T11:54:13.915Z,101302.41
2022-10-21T11:58:12.467Z,101292.35
2022-10-21T12:02:30.895Z,101292.46
2022-10-21T12:06:39.002Z,101287.35
2022-10-21T12:10:39.287Z,101288.80
2022-10-21T12:14:43.549Z,101285.20
2022-10-21T12:19:07.047Z,101288.59
2022-10-21T12:23:07.677Z,101280.05
2022-10-21T12:27:39.095Z,101274.04
2022-10-21T12:31:52.262Z,101267.85
2022-10-21T12:35:54.086Z,101267.48
2022-10-21T12:40:09.899Z,101271.52
2022-10-21T12:44:28.702Z,101266.30
2022-10-21T12:48:55.621Z,101256.08
2022-10-21T12:53:15.918Z,101252.52
2022-10-21T12:57:43.001Z,101254.55
2022-10-21T13:01:42.743Z,101252.07
2022-10-21T13:06:07.910Z,101258.40
2022-10-21T13:10:14.942Z,101253.72
2022-10-21T13:14:36.345Z,101245.11
2022-10-21T13:32:21.923Z,101231.42
2022-10-21T13:35:20.376Z,101222.08
2022-10-21T13:39:27.818Z,101209.06
2022-10-21T13:43:30.433Z,101202.63
2022-10-21T13:47:42.526Z,101212.73
2022-10-21T13:51:47.283Z,101216.17
2022-10-21T13:55:58.978Z,101219.20
2022-10-21T14:00:22.138Z,101211.05
2022-10-21T14:04:21.933Z,101224.80
2022-10-21T14:08:20.166Z,101219.62
2022-10-21T14:12:23.031Z,101218.59
2022-10-21T14:16:24.339Z,101221.29
2022-10-21T14:20:28.818Z,101218.88
2022-10-21T14:24:43.437Z,101216.73
2022-10-21T14:28:42.552Z,101219.61
2022-10-21T14:32:41.548Z,101218.95
2022-10-21T14:36:59.638Z,101214.45
2022-10-21T14:40:59.140Z,101204.17
2022-10-21T14:45:16.760Z,101207.50
2022-10-21T14:49:18.275Z,101206.50
2022-10-21T14:52:43.040Z,101210.16
2022-10-21T14:56:43.418Z,101213.16
2022-10-21T15:00:46.005Z,101215.63
2022-10-21T15:04:50.769Z,101205.71
2022-10-21T15:09:05.563Z,101206.09
2022-10-21T15:13:14.831Z,101204.52
2022-10-21T15:17:16.195Z,101201.92
2022-10-21T15:21:24.674Z,101201.59
2022-10-21T15:25:24.176Z,101196.37
2022-10-21T15:29:48.116Z,101195.20
2022-10-21T15:33:10.033Z,101192.77
2022-10-21T15:36:37.870Z,101179.98
2022-10-21T15:40:36.015Z,101175.27
2022-10-21T15:44:34.451Z,101163.21
2022-10-21T15:48:32.582Z,101155.86
2022-10-21T15:52:30.867Z,101163.22
2022-10-21T15:56:28.677Z,101161.49
2022-10-21T16:00:41.225Z,101168.14
2022-10-21T16:04:42.932Z,101165.68
2022-10-21T16:09:00.526Z,101168.27
2022-10-21T16:12:20.953Z,101165.44
2022-10-21T18:01:10.954Z,101126.60
2022-10-21T18:04:23.876Z,101123.65
2022-10-21T18:08:22.672Z,101126.98
2022-10-21T18:12:23.392Z,101123.16
2022-10-21T18:16:17.850Z,101116.36
2022-10-21T18:20:18.607Z,101113.59
2022-10-21T18:24:17.549Z,101106.27
2022-10-21T18:28:16.049Z,101101.91
2022-10-21T18:32:27.907Z,101095.08
2022-10-21T18:36:26.708Z,101094.77
2022-10-21T18:40:25.570Z,101090.59
2022-10-21T18:44:24.475Z,101092.17
2022-10-21T18:48:23.156Z,101093.25
2022-10-21T18:52:21.601Z,101093.97
2022-10-21T18:56:20.793Z,101090.84
2022-10-21T19:00:19.133Z,101088.06
2022-10-21T19:04:17.362Z,101088.75
2022-10-21T19:08:16.119Z,101081.21
2022-10-21T19:12:17.453Z,101074.91
2022-10-21T19:16:17.879Z,101075.98
2022-10-21T19:20:17.332Z,101085.11
2022-10-21T19:24:16.020Z,101087.20
2022-10-21T19:28:14.441Z,101085.30
2022-10-21T19:32:26.442Z,101080.26
2022-10-21T19:36:27.333Z,101084.12
2022-10-21T19:40:02.984Z,101082.55
2022-10-21T19:44:01.319Z,101083.77
2022-10-21T19:48:00.567Z,101087.98
2022-10-21T19:52:01.724Z,101085.34
2022-10-21T19:55:36.917Z,101087.07
2022-10-21T19:59:34.829Z,101089.18
2022-10-21T20:03:33.255Z,101091.98
2022-10-21T20:07:34.720Z,101094.98
2022-10-21T20:11:32.880Z,101094.62
2022-10-21T20:15:36.669Z,101092.70
2022-10-21T20:19:10.562Z,101084.99
2022-10-21T20:23:08.726Z,101083.24
2022-10-21T20:27:07.035Z,101082.89
2022-10-21T20:31:06.306Z,101079.92
2022-10-21T20:35:04.585Z,101070.98
2022-10-21T20:39:03.474Z,101068.02
2022-10-21T20:43:01.827Z,101068.90
2022-10-21T20:46:59.636Z,101069.60
2022-10-21T20:51:15.067Z,101069.08
2022-10-21T20:55:26.900Z,101062.60
2022-10-21T20:59:25.775Z,101056.29
2022-10-21T21:03:23.736Z,101055.94
2022-10-21T21:07:22.334Z,101060.15
2022-10-21T21:11:21.353Z,101050.70
2022-10-21T21:15:19.313Z,101045.82
2022-10-21T21:19:19.806Z,101040.58
2022-10-21T21:23:17.876Z,101039.02
2022-10-21T21:27:16.096Z,101037.98
2022-10-21T21:31:14.717Z,101035.88
2022-10-21T21:35:12.614Z,101040.08
2022-10-21T21:42:48.394Z,101038.31
2022-10-21T21:46:46.452Z,101037.42
2022-10-21T21:50:45.880Z,101039.36
2022-10-21T21:54:44.281Z,101037.44
2022-10-21T21:58:58.094Z,101037.61
2022-10-21T22:02:56.235Z,101029.91
2022-10-21T22:06:57.932Z,101025.19
2022-10-21T22:11:15.470Z,101021.67
2022-10-21T22:15:19.825Z,101022.02
2022-10-21T22:19:31.633Z,101016.43
2022-10-21T22:23:30.221Z,101010.83
2022-10-21T22:27:28.304Z,101008.77
2022-10-21T22:31:29.524Z,101005.95
2022-10-21T22:35:28.912Z,101002.61
2022-10-21T22:39:46.112Z,101002.43
2022-10-21T22:43:06.004Z,100998.73
2022-10-21T22:47:18.034Z,101002.07
2022-10-21T22:51:16.369Z,100994.91
2022-10-21T22:55:14.273Z,100997.37
2022-10-21T22:59:12.158Z,100994.96
2022-10-21T23:03:24.234Z,100996.19
2022-10-21T23:07:36.374Z,100997.23
2022-10-21T23:11:35.037Z,100993.20
2022-10-21T23:15:50.334Z,100990.04
2022-10-21T23:20:02.495Z,100988.61
2022-10-21T23:24:26.658Z,100980.36
2022-10-21T23:28:25.864Z,100975.80
2022-10-21T23:32:38.174Z,100973.00
2022-10-21T23:36:36.835Z,100971.09
2022-10-21T23:40:49.257Z,100972.52
2022-10-21T23:45:06.907Z,100975.83
2022-10-21T23:48:25.380Z,100971.97
2022-10-21T23:52:24.154Z,100968.83
2022-10-21T23:56:36.434Z,100968.84
